sensor_id;sensor_type;location;lat;lon;timestamp;temperature;humidity
45969;DHT22;31676;40.444;-3.668;2023-04-25T00:01:39;24.00;71.80
45969;DHT22;31676;40.444;-3.668;2023-04-25T00:04:05;24.00;71.80
45969;DHT22;31676;40.444;-3.668;2023-04-25T00:06:31;24.00;71.90
45969;DHT22;31676;40.444;-3.668;2023-04-25T00:08:57;24.00;71.90
45969;DHT22;31676;40.444;-3.668;2023-04-25T00:11:23;24.00;71.90
45969;DHT22;31676;40.444;-3.668;2023-04-25T00:13:49;24.00;71.90
45969;DHT22;31676;40.444;-3.668;2023-04-25T00:16:16;24.00;71.80
45969;DHT22;31676;40.444;-3.668;2023-04-25T00:18:42;24.00;71.80
45969;DHT22;31676;40.444;-3.668;2023-04-25T00:21:08;24.00;71.80
45969;DHT22;31676;40.444;-3.668;2023-04-25T00:23:34;24.00;71.80
45969;DHT22;31676;40.444;-3.668;2023-04-25T00:26:02;24.00;71.80
45969;DHT22;31676;40.444;-3.668;2023-04-25T00:28:27;23.90;71.80
45969;DHT22;31676;40.444;-3.668;2023-04-25T00:30:53;23.90;71.80
45969;DHT22;31676;40.444;-3.668;2023-04-25T00:33:19;23.90;71.80
45969;DHT22;31676;40.444;-3.668;2023-04-25T00:35:45;23.90;71.80
45969;DHT22;31676;40.444;-3.668;2023-04-25T00:38:10;23.90;71.80
45969;DHT22;31676;40.444;-3.668;2023-04-25T00:40:36;23.90;71.80
45969;DHT22;31676;40.444;-3.668;2023-04-25T00:43:02;23.90;71.80
45969;DHT22;31676;40.444;-3.668;2023-04-25T00:45:28;23.90;71.80
45969;DHT22;31676;40.444;-3.668;2023-04-25T00:47:54;23.90;71.80
45969;DHT22;31676;40.444;-3.668;2023-04-25T00:50:20;23.90;71.80
45969;DHT22;31676;40.444;-3.668;2023-04-25T00:52:46;23.90;71.80
45969;DHT22;31676;40.444;-3.668;2023-04-25T00:55:12;23.90;71.80
45969;DHT22;31676;40.444;-3.668;2023-04-25T00:57:37;23.90;71.80
45969;DHT22;31676;40.444;-3.668;2023-04-25T01:00:06;23.90;71.80
45969;DHT22;31676;40.444;-3.668;2023-04-25T01:02:33;23.90;71.80
45969;DHT22;31676;40.444;-3.668;2023-04-25T01:04:58;23.90;71.80
45969;DHT22;31676;40.444;-3.668;2023-04-25T01:07:24;23.90;71.80
45969;DHT22;31676;40.444;-3.668;2023-04-25T01:09:51;23.90;71.80
45969;DHT22;31676;40.444;-3.668;2023-04-25T01:12:17;23.90;71.80
45969;DHT22;31676;40.444;-3.668;2023-04-25T01:14:43;23.90;71.80
45969;DHT22;31676;40.444;-3.668;2023-04-25T01:17:09;23.90;71.80
45969;DHT22;31676;40.444;-3.668;2023-04-25T01:19:34;23.80;71.80
45969;DHT22;31676;40.444;-3.668;2023-04-25T01:22:00;23.80;71.70
45969;DHT22;31676;40.444;-3.668;2023-04-25T01:24:26;23.90;71.80
45969;DHT22;31676;40.444;-3.668;2023-04-25T01:26:53;23.80;71.70
45969;DHT22;31676;40.444;-3.668;2023-04-25T01:29:23;23.90;71.80
45969;DHT22;31676;40.444;-3.668;2023-04-25T01:31:49;23.90;71.80
45969;DHT22;31676;40.444;-3.668;2023-04-25T01:34:16;23.90;71.80
45969;DHT22;31676;40.444;-3.668;2023-04-25T01:36:42;23.80;71.70
45969;DHT22;31676;40.444;-3.668;2023-04-25T01:39:07;23.80;71.80
45969;DHT22;31676;40.444;-3.668;2023-04-25T01:41:33;23.80;71.80
45969;DHT22;31676;40.444;-3.668;2023-04-25T01:44:02;23.80;71.80
45969;DHT22;31676;40.444;-3.668;2023-04-25T01:46:28;23.80;71.80
45969;DHT22;31676;40.444;-3.668;2023-04-25T01:48:54;23.80;71.80
45969;DHT22;31676;40.444;-3.668;2023-04-25T01:51:20;23.80;71.80
45969;DHT22;31676;40.444;-3.668;2023-04-25T01:53:45;23.80;71.80
45969;DHT22;31676;40.444;-3.668;2023-04-25T01:56:11;23.80;71.80
45969;DHT22;31676;40.444;-3.668;2023-04-25T01:58:37;23.80;71.90
45969;DHT22;31676;40.444;-3.668;2023-04-25T02:01:03;23.80;71.80
45969;DHT22;31676;40.444;-3.668;2023-04-25T02:03:29;23.80;71.80
45969;DHT22;31676;40.444;-3.668;2023-04-25T02:05:54;23.80;71.80
45969;DHT22;31676;40.444;-3.668;2023-04-25T02:08:20;23.80;71.80
45969;DHT22;31676;40.444;-3.668;2023-04-25T02:10:46;23.80;71.80
45969;DHT22;31676;40.444;-3.668;2023-04-25T02:13:11;23.80;71.80
45969;DHT22;31676;40.444;-3.668;2023-04-25T02:15:37;23.80;71.80
45969;DHT22;31676;40.444;-3.668;2023-04-25T02:18:03;23.70;71.70
45969;DHT22;31676;40.444;-3.668;2023-04-25T02:20:29;23.80;71.80
45969;DHT22;31676;40.444;-3.668;2023-04-25T02:22:55;23.80;71.80
45969;DHT22;31676;40.444;-3.668;2023-04-25T02:25:22;23.80;71.80
45969;DHT22;31676;40.444;-3.668;2023-04-25T02:27:48;23.70;71.70
45969;DHT22;31676;40.444;-3.668;2023-04-25T02:30:14;23.80;71.80
45969;DHT22;31676;40.444;-3.668;2023-04-25T02:32:40;23.70;71.70
45969;DHT22;31676;40.444;-3.668;2023-04-25T02:35:06;23.70;71.70
45969;DHT22;31676;40.444;-3.668;2023-04-25T02:37:33;23.70;71.70
45969;DHT22;31676;40.444;-3.668;2023-04-25T02:39:59;23.70;71.70
45969;DHT22;31676;40.444;-3.668;2023-04-25T02:42:26;23.80;71.80
45969;DHT22;31676;40.444;-3.668;2023-04-25T02:44:51;23.70;71.80
45969;DHT22;31676;40.444;-3.668;2023-04-25T02:47:17;23.70;71.70
45969;DHT22;31676;40.444;-3.668;2023-04-25T02:49:43;23.70;71.70
45969;DHT22;31676;40.444;-3.668;2023-04-25T02:52:08;23.70;71.70
45969;DHT22;31676;40.444;-3.668;2023-04-25T02:54:34;23.70;71.70
45969;DHT22;31676;40.444;-3.668;2023-04-25T02:57:00;23.70;71.80
45969;DHT22;31676;40.444;-3.668;2023-04-25T02:59:27;23.70;71.70
45969;DHT22;31676;40.444;-3.668;2023-04-25T03:01:53;23.70;71.70
45969;DHT22;31676;40.444;-3.668;2023-04-25T03:04:19;23.70;71.70
45969;DHT22;31676;40.444;-3.668;2023-04-25T03:06:44;23.70;72.40
45969;DHT22;31676;40.444;-3.668;2023-04-25T03:09:10;23.70;71.70
45969;DHT22;31676;40.444;-3.668;2023-04-25T03:11:36;23.70;71.80
45969;DHT22;31676;40.444;-3.668;2023-04-25T03:14:02;23.70;71.70
45969;DHT22;31676;40.444;-3.668;2023-04-25T03:16:28;23.70;71.80
45969;DHT22;31676;40.444;-3.668;2023-04-25T03:18:54;23.70;71.80
45969;DHT22;31676;40.444;-3.668;2023-04-25T03:21:19;23.70;71.80
45969;DHT22;31676;40.444;-3.668;2023-04-25T03:23:45;23.70;71.70
45969;DHT22;31676;40.444;-3.668;2023-04-25T03:26:11;23.70;71.70
45969;DHT22;31676;40.444;-3.668;2023-04-25T03:28:36;23.70;71.80
45969;DHT22;31676;40.444;-3.668;2023-04-25T03:31:02;23.70;71.80
45969;DHT22;31676;40.444;-3.668;2023-04-25T03:33:28;23.60;71.70
45969;DHT22;31676;40.444;-3.668;2023-04-25T03:35:53;23.60;71.70
45969;DHT22;31676;40.444;-3.668;2023-04-25T03:38:19;23.70;71.70
45969;DHT22;31676;40.444;-3.668;2023-04-25T03:40:45;23.60;71.70
45969;DHT22;31676;40.444;-3.668;2023-04-25T03:43:10;23.60;72.30
45969;DHT22;31676;40.444;-3.668;2023-04-25T03:45:36;23.60;71.70
45969;DHT22;31676;40.444;-3.668;2023-04-25T03:48:02;23.60;71.70
45969;DHT22;31676;40.444;-3.668;2023-04-25T03:50:28;23.60;71.70
45969;DHT22;31676;40.444;-3.668;2023-04-25T03:52:53;23.60;71.70
45969;DHT22;31676;40.444;-3.668;2023-04-25T03:55:19;23.60;71.70
45969;DHT22;31676;40.444;-3.668;2023-04-25T03:57:45;23.60;71.70
45969;DHT22;31676;40.444;-3.668;2023-04-25T04:00:11;23.60;71.70
45969;DHT22;31676;40.444;-3.668;2023-04-25T04:02:36;23.60;71.70
45969;DHT22;31676;40.444;-3.668;2023-04-25T04:05:04;23.60;71.70
45969;DHT22;31676;40.444;-3.668;2023-04-25T04:07:31;23.60;71.70
45969;DHT22;31676;40.444;-3.668;2023-04-25T04:09:58;23.60;71.70
45969;DHT22;31676;40.444;-3.668;2023-04-25T04:12:24;23.60;71.70
45969;DHT22;31676;40.444;-3.668;2023-04-25T04:14:49;23.60;71.70
45969;DHT22;31676;40.444;-3.668;2023-04-25T04:17:15;23.60;71.70
45969;DHT22;31676;40.444;-3.668;2023-04-25T04:19:41;23.60;71.70
45969;DHT22;31676;40.444;-3.668;2023-04-25T04:22:06;23.60;71.70
45969;DHT22;31676;40.444;-3.668;2023-04-25T04:24:32;23.60;71.70
45969;DHT22;31676;40.444;-3.668;2023-04-25T04:26:58;23.60;71.70
45969;DHT22;31676;40.444;-3.668;2023-04-25T04:29:24;23.60;71.70
45969;DHT22;31676;40.444;-3.668;2023-04-25T04:31:50;23.50;71.70
45969;DHT22;31676;40.444;-3.668;2023-04-25T04:34:16;23.50;71.70
45969;DHT22;31676;40.444;-3.668;2023-04-25T04:36:46;23.50;71.70
45969;DHT22;31676;40.444;-3.668;2023-04-25T04:39:12;23.50;71.70
45969;DHT22;31676;40.444;-3.668;2023-04-25T04:41:38;23.50;71.70
45969;DHT22;31676;40.444;-3.668;2023-04-25T04:44:04;23.50;71.60
45969;DHT22;31676;40.444;-3.668;2023-04-25T04:46:32;23.50;71.60
45969;DHT22;31676;40.444;-3.668;2023-04-25T04:49:04;23.50;71.70
45969;DHT22;31676;40.444;-3.668;2023-04-25T04:51:30;23.50;71.70
45969;DHT22;31676;40.444;-3.668;2023-04-25T04:53:56;23.50;71.60
45969;DHT22;31676;40.444;-3.668;2023-04-25T04:56:24;23.50;71.70
45969;DHT22;31676;40.444;-3.668;2023-04-25T04:58:50;23.50;71.70
45969;DHT22;31676;40.444;-3.668;2023-04-25T05:01:16;23.50;71.70
45969;DHT22;31676;40.444;-3.668;2023-04-25T05:03:42;23.50;71.70
45969;DHT22;31676;40.444;-3.668;2023-04-25T05:06:08;23.50;71.60
45969;DHT22;31676;40.444;-3.668;2023-04-25T05:08:34;23.50;71.60
45969;DHT22;31676;40.444;-3.668;2023-04-25T05:11:00;23.50;71.70
45969;DHT22;31676;40.444;-3.668;2023-04-25T05:13:25;23.50;71.60
45969;DHT22;31676;40.444;-3.668;2023-04-25T05:15:51;23.50;71.60
45969;DHT22;31676;40.444;-3.668;2023-04-25T05:18:17;23.50;71.70
45969;DHT22;31676;40.444;-3.668;2023-04-25T05:20:42;23.50;71.70
45969;DHT22;31676;40.444;-3.668;2023-04-25T05:23:08;23.50;71.70
45969;DHT22;31676;40.444;-3.668;2023-04-25T05:25:34;23.50;71.60
45969;DHT22;31676;40.444;-3.668;2023-04-25T05:27:59;23.50;71.60
45969;DHT22;31676;40.444;-3.668;2023-04-25T05:30:25;23.50;71.70
45969;DHT22;31676;40.444;-3.668;2023-04-25T05:32:51;23.50;71.60
45969;DHT22;31676;40.444;-3.668;2023-04-25T05:35:17;23.40;71.60
45969;DHT22;31676;40.444;-3.668;2023-04-25T05:37:42;23.50;71.60
45969;DHT22;31676;40.444;-3.668;2023-04-25T05:40:08;23.40;71.60
45969;DHT22;31676;40.444;-3.668;2023-04-25T05:42:34;23.40;71.60
45969;DHT22;31676;40.444;-3.668;2023-04-25T05:45:00;23.40;71.60
45969;DHT22;31676;40.444;-3.668;2023-04-25T05:47:26;23.40;71.60
45969;DHT22;31676;40.444;-3.668;2023-04-25T05:49:52;23.40;71.60
45969;DHT22;31676;40.444;-3.668;2023-04-25T05:52:18;23.50;71.70
45969;DHT22;31676;40.444;-3.668;2023-04-25T05:54:44;23.40;71.60
45969;DHT22;31676;40.444;-3.668;2023-04-25T05:57:18;23.40;71.60
45969;DHT22;31676;40.444;-3.668;2023-04-25T05:59:43;23.40;71.60
45969;DHT22;31676;40.444;-3.668;2023-04-25T06:02:09;23.40;71.60
45969;DHT22;31676;40.444;-3.668;2023-04-25T06:04:35;23.40;71.60
45969;DHT22;31676;40.444;-3.668;2023-04-25T06:07:00;23.40;71.60
45969;DHT22;31676;40.444;-3.668;2023-04-25T06:09:26;23.40;71.60
45969;DHT22;31676;40.444;-3.668;2023-04-25T06:11:52;23.40;71.60
45969;DHT22;31676;40.444;-3.668;2023-04-25T06:14:17;23.40;71.60
45969;DHT22;31676;40.444;-3.668;2023-04-25T06:16:43;23.40;71.60
45969;DHT22;31676;40.444;-3.668;2023-04-25T06:19:09;23.40;71.60
45969;DHT22;31676;40.444;-3.668;2023-04-25T06:21:34;23.40;71.60
45969;DHT22;31676;40.444;-3.668;2023-04-25T06:24:00;23.40;71.60
45969;DHT22;31676;40.444;-3.668;2023-04-25T06:26:26;23.30;71.50
45969;DHT22;31676;40.444;-3.668;2023-04-25T06:28:51;23.30;71.50
45969;DHT22;31676;40.444;-3.668;2023-04-25T06:31:17;23.30;71.50
45969;DHT22;31676;40.444;-3.668;2023-04-25T06:33:43;23.30;71.50
45969;DHT22;31676;40.444;-3.668;2023-04-25T06:36:09;23.30;71.50
45969;DHT22;31676;40.444;-3.668;2023-04-25T06:38:35;23.30;71.50
45969;DHT22;31676;40.444;-3.668;2023-04-25T06:41:00;23.30;71.50
45969;DHT22;31676;40.444;-3.668;2023-04-25T06:43:26;23.30;71.50
45969;DHT22;31676;40.444;-3.668;2023-04-25T06:45:52;23.30;71.50
45969;DHT22;31676;40.444;-3.668;2023-04-25T06:48:17;23.30;71.50
45969;DHT22;31676;40.444;-3.668;2023-04-25T06:50:43;23.30;71.50
45969;DHT22;31676;40.444;-3.668;2023-04-25T06:53:09;23.30;71.50
45969;DHT22;31676;40.444;-3.668;2023-04-25T06:55:36;23.30;71.50
45969;DHT22;31676;40.444;-3.668;2023-04-25T06:58:02;23.30;71.50
45969;DHT22;31676;40.444;-3.668;2023-04-25T07:00:28;23.30;71.50
45969;DHT22;31676;40.444;-3.668;2023-04-25T07:02:54;23.30;71.50
45969;DHT22;31676;40.444;-3.668;2023-04-25T07:05:20;23.30;71.50
45969;DHT22;31676;40.444;-3.668;2023-04-25T07:07:46;23.30;71.50
45969;DHT22;31676;40.444;-3.668;2023-04-25T07:10:12;23.30;71.60
45969;DHT22;31676;40.444;-3.668;2023-04-25T07:12:37;23.30;71.50
45969;DHT22;31676;40.444;-3.668;2023-04-25T07:15:03;23.30;71.50
45969;DHT22;31676;40.444;-3.668;2023-04-25T07:17:31;23.30;71.50
45969;DHT22;31676;40.444;-3.668;2023-04-25T07:19:58;23.30;71.50
45969;DHT22;31676;40.444;-3.668;2023-04-25T07:22:23;23.30;71.50
45969;DHT22;31676;40.444;-3.668;2023-04-25T07:24:51;23.30;71.50
45969;DHT22;31676;40.444;-3.668;2023-04-25T07:27:18;23.30;71.50
45969;DHT22;31676;40.444;-3.668;2023-04-25T07:29:44;23.30;71.50
45969;DHT22;31676;40.444;-3.668;2023-04-25T07:32:13;23.30;71.50
45969;DHT22;31676;40.444;-3.668;2023-04-25T07:34:39;23.30;71.40
45969;DHT22;31676;40.444;-3.668;2023-04-25T07:37:05;23.30;71.40
45969;DHT22;31676;40.444;-3.668;2023-04-25T07:39:31;23.30;71.50
45969;DHT22;31676;40.444;-3.668;2023-04-25T07:41:56;23.30;71.40
45969;DHT22;31676;40.444;-3.668;2023-04-25T07:44:24;23.30;71.40
45969;DHT22;31676;40.444;-3.668;2023-04-25T07:46:49;23.30;71.40
45969;DHT22;31676;40.444;-3.668;2023-04-25T07:49:15;23.30;71.40
45969;DHT22;31676;40.444;-3.668;2023-04-25T07:51:41;23.30;71.40
45969;DHT22;31676;40.444;-3.668;2023-04-25T07:54:13;23.30;71.40
45969;DHT22;31676;40.444;-3.668;2023-04-25T07:56:39;23.30;71.40
45969;DHT22;31676;40.444;-3.668;2023-04-25T07:59:05;23.30;71.40
45969;DHT22;31676;40.444;-3.668;2023-04-25T08:01:30;23.30;71.30
45969;DHT22;31676;40.444;-3.668;2023-04-25T08:03:56;23.30;71.40
45969;DHT22;31676;40.444;-3.668;2023-04-25T08:06:22;23.30;71.30
45969;DHT22;31676;40.444;-3.668;2023-04-25T08:08:47;23.30;71.30
45969;DHT22;31676;40.444;-3.668;2023-04-25T08:11:13;23.30;71.30
45969;DHT22;31676;40.444;-3.668;2023-04-25T08:13:39;23.30;72.00
45969;DHT22;31676;40.444;-3.668;2023-04-25T08:16:04;23.30;71.30
45969;DHT22;31676;40.444;-3.668;2023-04-25T08:18:30;23.40;71.30
45969;DHT22;31676;40.444;-3.668;2023-04-25T08:20:56;23.40;71.30
45969;DHT22;31676;40.444;-3.668;2023-04-25T08:23:22;23.30;71.30
45969;DHT22;31676;40.444;-3.668;2023-04-25T08:25:48;23.40;71.30
45969;DHT22;31676;40.444;-3.668;2023-04-25T08:28:14;23.40;71.40
45969;DHT22;31676;40.444;-3.668;2023-04-25T08:30:40;23.40;71.30
45969;DHT22;31676;40.444;-3.668;2023-04-25T08:33:06;23.40;71.30
45969;DHT22;31676;40.444;-3.668;2023-04-25T08:35:31;23.40;71.30
45969;DHT22;31676;40.444;-3.668;2023-04-25T08:37:58;23.40;71.30
45969;DHT22;31676;40.444;-3.668;2023-04-25T08:40:24;23.40;71.30
45969;DHT22;31676;40.444;-3.668;2023-04-25T08:42:54;23.40;71.30
45969;DHT22;31676;40.444;-3.668;2023-04-25T08:45:21;23.40;71.30
45969;DHT22;31676;40.444;-3.668;2023-04-25T08:47:46;23.40;71.30
45969;DHT22;31676;40.444;-3.668;2023-04-25T08:50:14;23.40;71.30
45969;DHT22;31676;40.444;-3.668;2023-04-25T08:52:43;23.40;71.30
45969;DHT22;31676;40.444;-3.668;2023-04-25T08:55:09;23.40;71.30
45969;DHT22;31676;40.444;-3.668;2023-04-25T08:57:34;23.40;71.20
45969;DHT22;31676;40.444;-3.668;2023-04-25T09:00:00;23.40;71.20
45969;DHT22;31676;40.444;-3.668;2023-04-25T09:02:26;23.40;71.20
45969;DHT22;31676;40.444;-3.668;2023-04-25T09:04:53;23.50;71.30
45969;DHT22;31676;40.444;-3.668;2023-04-25T09:07:19;23.50;71.30
45969;DHT22;31676;40.444;-3.668;2023-04-25T09:09:46;23.50;71.20
45969;DHT22;31676;40.444;-3.668;2023-04-25T09:12:12;23.50;71.20
45969;DHT22;31676;40.444;-3.668;2023-04-25T09:14:38;23.50;71.20
45969;DHT22;31676;40.444;-3.668;2023-04-25T09:17:04;23.50;71.20
45969;DHT22;31676;40.444;-3.668;2023-04-25T09:19:35;23.50;71.20
45969;DHT22;31676;40.444;-3.668;2023-04-25T09:22:03;23.50;71.20
45969;DHT22;31676;40.444;-3.668;2023-04-25T09:24:33;23.50;71.20
45969;DHT22;31676;40.444;-3.668;2023-04-25T09:26:59;23.50;71.20
45969;DHT22;31676;40.444;-3.668;2023-04-25T09:29:31;23.50;71.20
45969;DHT22;31676;40.444;-3.668;2023-04-25T09:32:10;23.50;71.20
45969;DHT22;31676;40.444;-3.668;2023-04-25T09:34:40;23.50;71.20
45969;DHT22;31676;40.444;-3.668;2023-04-25T09:37:08;23.50;71.20
45969;DHT22;31676;40.444;-3.668;2023-04-25T09:39:34;23.50;71.20
45969;DHT22;31676;40.444;-3.668;2023-04-25T09:42:00;23.50;71.20
45969;DHT22;31676;40.444;-3.668;2023-04-25T09:44:25;23.50;71.10
45969;DHT22;31676;40.444;-3.668;2023-04-25T09:46:52;23.50;71.10
45969;DHT22;31676;40.444;-3.668;2023-04-25T09:49:22;23.60;71.20
45969;DHT22;31676;40.444;-3.668;2023-04-25T09:51:57;23.60;71.20
45969;DHT22;31676;40.444;-3.668;2023-04-25T09:54:23;23.60;71.20
45969;DHT22;31676;40.444;-3.668;2023-04-25T09:56:49;23.60;71.20
45969;DHT22;31676;40.444;-3.668;2023-04-25T09:59:16;23.60;71.10
45969;DHT22;31676;40.444;-3.668;2023-04-25T10:01:44;23.60;71.10
45969;DHT22;31676;40.444;-3.668;2023-04-25T10:04:10;23.60;71.10
45969;DHT22;31676;40.444;-3.668;2023-04-25T10:06:37;23.60;71.10
45969;DHT22;31676;40.444;-3.668;2023-04-25T10:09:03;23.60;71.10
45969;DHT22;31676;40.444;-3.668;2023-04-25T10:11:30;23.60;71.00
45969;DHT22;31676;40.444;-3.668;2023-04-25T10:13:57;23.60;71.00
45969;DHT22;31676;40.444;-3.668;2023-04-25T10:16:23;23.60;71.10
45969;DHT22;31676;40.444;-3.668;2023-04-25T10:18:50;23.60;71.00
45969;DHT22;31676;40.444;-3.668;2023-04-25T10:21:16;23.60;71.00
45969;DHT22;31676;40.444;-3.668;2023-04-25T10:23:43;23.70;71.10
45969;DHT22;31676;40.444;-3.668;2023-04-25T10:26:09;23.70;71.00
45969;DHT22;31676;40.444;-3.668;2023-04-25T10:31:23;23.70;71.00
45969;DHT22;31676;40.444;-3.668;2023-04-25T10:33:48;23.70;71.00
45969;DHT22;31676;40.444;-3.668;2023-04-25T10:36:15;23.70;71.00
45969;DHT22;31676;40.444;-3.668;2023-04-25T10:38:43;23.70;71.00
45969;DHT22;31676;40.444;-3.668;2023-04-25T10:41:09;23.70;71.00
45969;DHT22;31676;40.444;-3.668;2023-04-25T10:43:39;23.70;71.00
45969;DHT22;31676;40.444;-3.668;2023-04-25T10:46:24;23.70;71.00
45969;DHT22;31676;40.444;-3.668;2023-04-25T10:48:57;23.70;71.00
45969;DHT22;31676;40.444;-3.668;2023-04-25T10:56:41;23.70;71.00
45969;DHT22;31676;40.444;-3.668;2023-04-25T11:01:49;23.70;70.90
45969;DHT22;31676;40.444;-3.668;2023-04-25T11:04:49;23.70;71.00
45969;DHT22;31676;40.444;-3.668;2023-04-25T11:09:40;23.70;71.00
45969;DHT22;31676;40.444;-3.668;2023-04-25T11:12:09;23.70;71.00
45969;DHT22;31676;40.444;-3.668;2023-04-25T11:14:36;23.70;71.00
45969;DHT22;31676;40.444;-3.668;2023-04-25T11:17:02;23.70;71.60
45969;DHT22;31676;40.444;-3.668;2023-04-25T11:19:28;23.70;70.90
45969;DHT22;31676;40.444;-3.668;2023-04-25T11:21:57;23.70;71.00
45969;DHT22;31676;40.444;-3.668;2023-04-25T11:24:27;23.70;71.00
45969;DHT22;31676;40.444;-3.668;2023-04-25T11:26:52;23.70;71.00
45969;DHT22;31676;40.444;-3.668;2023-04-25T11:29:18;23.70;70.90
45969;DHT22;31676;40.444;-3.668;2023-04-25T11:31:47;23.70;71.00
45969;DHT22;31676;40.444;-3.668;2023-04-25T11:34:16;23.70;71.60
45969;DHT22;31676;40.444;-3.668;2023-04-25T11:36:42;23.80;71.00
45969;DHT22;31676;40.444;-3.668;2023-04-25T11:39:07;23.70;71.00
45969;DHT22;31676;40.444;-3.668;2023-04-25T11:41:33;23.80;71.00
45969;DHT22;31676;40.444;-3.668;2023-04-25T11:43:59;23.70;70.90
45969;DHT22;31676;40.444;-3.668;2023-04-25T11:46:25;23.80;70.90
45969;DHT22;31676;40.444;-3.668;2023-04-25T11:48:51;23.80;71.00
45969;DHT22;31676;40.444;-3.668;2023-04-25T11:51:17;23.80;71.00
45969;DHT22;31676;40.444;-3.668;2023-04-25T11:53:44;23.80;70.90
45969;DHT22;31676;40.444;-3.668;2023-04-25T11:56:10;23.80;70.90
45969;DHT22;31676;40.444;-3.668;2023-04-25T12:01:27;23.90;71.00
45969;DHT22;31676;40.444;-3.668;2023-04-25T12:03:53;23.80;70.90
45969;DHT22;31676;40.444;-3.668;2023-04-25T12:06:19;23.80;70.90
45969;DHT22;31676;40.444;-3.668;2023-04-25T12:09:04;23.90;70.90
45969;DHT22;31676;40.444;-3.668;2023-04-25T12:11:30;23.90;70.90
45969;DHT22;31676;40.444;-3.668;2023-04-25T12:14:01;23.90;70.90
45969;DHT22;31676;40.444;-3.668;2023-04-25T12:16:27;23.90;70.90
45969;DHT22;31676;40.444;-3.668;2023-04-25T12:18:52;23.90;70.90
45969;DHT22;31676;40.444;-3.668;2023-04-25T12:21:20;23.90;70.90
45969;DHT22;31676;40.444;-3.668;2023-04-25T12:23:45;23.90;70.90
45969;DHT22;31676;40.444;-3.668;2023-04-25T12:26:11;23.90;70.90
45969;DHT22;31676;40.444;-3.668;2023-04-25T12:28:37;23.90;70.80
45969;DHT22;31676;40.444;-3.668;2023-04-25T12:31:06;23.90;70.80
45969;DHT22;31676;40.444;-3.668;2023-04-25T12:33:35;23.90;70.80
45969;DHT22;31676;40.444;-3.668;2023-04-25T12:36:02;23.90;70.80
45969;DHT22;31676;40.444;-3.668;2023-04-25T12:38:39;23.90;70.80
45969;DHT22;31676;40.444;-3.668;2023-04-25T12:41:05;24.00;70.80
45969;DHT22;31676;40.444;-3.668;2023-04-25T12:43:31;24.00;71.10
45969;DHT22;31676;40.444;-3.668;2023-04-25T12:45:56;23.90;70.80
45969;DHT22;31676;40.444;-3.668;2023-04-25T12:48:22;23.90;70.80
45969;DHT22;31676;40.444;-3.668;2023-04-25T12:50:48;24.00;70.80
45969;DHT22;31676;40.444;-3.668;2023-04-25T12:53:15;24.00;70.80
45969;DHT22;31676;40.444;-3.668;2023-04-25T12:55:41;24.00;70.80
45969;DHT22;31676;40.444;-3.668;2023-04-25T12:58:07;24.00;70.80
45969;DHT22;31676;40.444;-3.668;2023-04-25T13:00:33;24.00;70.80
45969;DHT22;31676;40.444;-3.668;2023-04-25T13:02:58;24.00;70.80
45969;DHT22;31676;40.444;-3.668;2023-04-25T13:05:24;24.00;70.80
45969;DHT22;31676;40.444;-3.668;2023-04-25T13:07:50;24.10;70.80
45969;DHT22;31676;40.444;-3.668;2023-04-25T13:10:17;24.00;70.80
45969;DHT22;31676;40.444;-3.668;2023-04-25T13:12:43;24.00;70.80
45969;DHT22;31676;40.444;-3.668;2023-04-25T13:15:09;24.00;70.70
45969;DHT22;31676;40.444;-3.668;2023-04-25T13:17:37;24.00;70.70
45969;DHT22;31676;40.444;-3.668;2023-04-25T13:20:04;24.10;70.80
45969;DHT22;31676;40.444;-3.668;2023-04-25T13:22:31;24.10;70.80
45969;DHT22;31676;40.444;-3.668;2023-04-25T13:24:57;24.10;70.80
45969;DHT22;31676;40.444;-3.668;2023-04-25T13:27:22;24.10;70.70
45969;DHT22;31676;40.444;-3.668;2023-04-25T13:29:48;24.10;70.70
45969;DHT22;31676;40.444;-3.668;2023-04-25T13:32:14;24.10;70.70
45969;DHT22;31676;40.444;-3.668;2023-04-25T13:34:39;24.10;70.70
45969;DHT22;31676;40.444;-3.668;2023-04-25T13:37:05;24.10;70.70
45969;DHT22;31676;40.444;-3.668;2023-04-25T13:39:31;24.10;70.70
45969;DHT22;31676;40.444;-3.668;2023-04-25T13:41:57;24.10;70.70
45969;DHT22;31676;40.444;-3.668;2023-04-25T13:44:23;24.10;70.70
45969;DHT22;31676;40.444;-3.668;2023-04-25T13:46:48;24.10;70.70
45969;DHT22;31676;40.444;-3.668;2023-04-25T13:49:14;24.20;70.70
45969;DHT22;31676;40.444;-3.668;2023-04-25T13:51:40;24.10;70.70
45969;DHT22;31676;40.444;-3.668;2023-04-25T13:54:06;24.20;70.70
45969;DHT22;31676;40.444;-3.668;2023-04-25T13:56:31;24.10;70.70
45969;DHT22;31676;40.444;-3.668;2023-04-25T13:58:57;24.20;70.70
45969;DHT22;31676;40.444;-3.668;2023-04-25T14:01:23;24.20;70.70
45969;DHT22;31676;40.444;-3.668;2023-04-25T14:03:49;24.20;70.70
45969;DHT22;31676;40.444;-3.668;2023-04-25T14:06:14;24.20;70.70
45969;DHT22;31676;40.444;-3.668;2023-04-25T14:08:46;24.20;70.70
45969;DHT22;31676;40.444;-3.668;2023-04-25T14:11:20;24.20;70.70
45969;DHT22;31676;40.444;-3.668;2023-04-25T14:13:45;24.20;70.70
45969;DHT22;31676;40.444;-3.668;2023-04-25T14:16:11;24.20;70.70
45969;DHT22;31676;40.444;-3.668;2023-04-25T14:18:37;24.20;70.70
45969;DHT22;31676;40.444;-3.668;2023-04-25T14:21:02;24.20;70.70
45969;DHT22;31676;40.444;-3.668;2023-04-25T14:23:28;24.20;70.70
45969;DHT22;31676;40.444;-3.668;2023-04-25T14:25:54;24.20;70.70
45969;DHT22;31676;40.444;-3.668;2023-04-25T14:28:20;24.20;70.70
45969;DHT22;31676;40.444;-3.668;2023-04-25T14:30:46;24.20;70.70
45969;DHT22;31676;40.444;-3.668;2023-04-25T14:33:11;24.20;70.70
45969;DHT22;31676;40.444;-3.668;2023-04-25T14:35:38;24.20;70.70
45969;DHT22;31676;40.444;-3.668;2023-04-25T14:38:04;24.20;70.80
45969;DHT22;31676;40.444;-3.668;2023-04-25T14:40:30;24.20;70.70
45969;DHT22;31676;40.444;-3.668;2023-04-25T14:42:56;24.20;70.70
45969;DHT22;31676;40.444;-3.668;2023-04-25T14:45:22;24.20;70.70
45969;DHT22;31676;40.444;-3.668;2023-04-25T14:47:47;24.20;70.70
45969;DHT22;31676;40.444;-3.668;2023-04-25T14:50:13;24.20;70.70
45969;DHT22;31676;40.444;-3.668;2023-04-25T14:52:39;24.20;70.70
45969;DHT22;31676;40.444;-3.668;2023-04-25T14:55:05;24.20;70.70
45969;DHT22;31676;40.444;-3.668;2023-04-25T14:57:31;24.20;70.70
45969;DHT22;31676;40.444;-3.668;2023-04-25T14:59:57;24.20;70.70
45969;DHT22;31676;40.444;-3.668;2023-04-25T15:02:23;24.30;70.80
45969;DHT22;31676;40.444;-3.668;2023-04-25T15:04:49;24.20;70.70
45969;DHT22;31676;40.444;-3.668;2023-04-25T15:07:15;24.20;70.70
45969;DHT22;31676;40.444;-3.668;2023-04-25T15:09:40;24.20;70.70
45969;DHT22;31676;40.444;-3.668;2023-04-25T15:12:06;24.20;70.70
45969;DHT22;31676;40.444;-3.668;2023-04-25T15:14:32;24.20;70.70
45969;DHT22;31676;40.444;-3.668;2023-04-25T15:16:59;24.20;70.70
45969;DHT22;31676;40.444;-3.668;2023-04-25T15:19:25;24.30;70.80
45969;DHT22;31676;40.444;-3.668;2023-04-25T15:21:51;24.20;70.70
45969;DHT22;31676;40.444;-3.668;2023-04-25T15:24:17;24.20;70.70
45969;DHT22;31676;40.444;-3.668;2023-04-25T15:26:43;24.30;70.80